createdAt,value
2023-03-10T00:00:04.148Z,8.25
2023-03-10T00:01:04.071Z,8.25
2023-03-10T00:02:04.880Z,8.25
2023-03-10T00:03:04.078Z,8.25
2023-03-10T00:04:04.133Z,8.25
2023-03-10T00:05:04.062Z,8.25
2023-03-10T00:06:04.122Z,8.25
2023-03-10T00:07:04.152Z,8.25
2023-03-10T00:08:04.221Z,8.25
2023-03-10T00:09:04.232Z,8.25
2023-03-10T00:10:04.226Z,8.25
2023-03-10T00:11:04.216Z,8.25
2023-03-10T00:12:04.405Z,8.25
2023-03-10T00:13:04.408Z,8.25
2023-03-10T00:14:04.304Z,8.25
2023-03-10T00:15:04.309Z,8.25
2023-03-10T00:16:04.445Z,8.25
2023-03-10T00:17:04.470Z,8.25
2023-03-10T00:18:03.509Z,8.25
2023-03-10T00:19:03.511Z,8.19
2023-03-10T00:20:03.666Z,8.19
2023-03-10T00:21:03.671Z,8.19
2023-03-10T00:22:03.684Z,8.19
2023-03-10T00:23:03.699Z,8.19
2023-03-10T00:24:03.760Z,8.12
2023-03-10T00:25:03.746Z,8.12
2023-03-10T00:26:03.743Z,8.12
2023-03-10T00:27:03.762Z,8.12
2023-03-10T00:28:03.834Z,8.06
2023-03-10T00:29:03.823Z,8.06
2023-03-10T00:30:03.908Z,8.06
2023-03-10T00:31:03.876Z,8.06
2023-03-10T00:32:03.895Z,8.06
2023-03-10T00:33:04.006Z,8.06
2023-03-10T00:34:04.072Z,8.06
2023-03-10T00:35:04.089Z,8.06
2023-03-10T00:36:04.141Z,8.00
2023-03-10T00:37:04.007Z,8.00
2023-03-10T00:38:03.914Z,8.00
2023-03-10T00:39:04.055Z,8.00
2023-03-10T00:40:03.995Z,8.00
2023-03-10T00:41:03.990Z,8.06
2023-03-10T00:42:03.910Z,8.06
2023-03-10T00:43:03.991Z,8.12
2023-03-10T00:44:04.162Z,8.12
2023-03-10T00:45:04.164Z,8.12
2023-03-10T00:46:04.143Z,8.19
2023-03-10T00:47:04.164Z,8.19
2023-03-10T00:48:04.069Z,8.19
2023-03-10T00:49:04.159Z,8.25
2023-03-10T00:50:04.254Z,8.19
2023-03-10T00:51:04.252Z,8.25
2023-03-10T00:52:04.384Z,8.25
2023-03-10T00:53:04.404Z,8.25
2023-03-10T00:54:04.312Z,8.25
2023-03-10T00:55:04.405Z,8.25
2023-03-10T00:56:04.281Z,8.25
2023-03-10T00:57:04.320Z,8.31
2023-03-10T00:58:04.333Z,8.31
2023-03-10T00:59:04.445Z,8.31
2023-03-10T01:00:04.405Z,8.31
2023-03-10T01:01:04.416Z,8.31
2023-03-10T01:02:04.335Z,8.31
2023-03-10T01:03:04.416Z,8.38
2023-03-10T01:04:04.481Z,8.38
2023-03-10T01:05:04.464Z,8.38
2023-03-10T01:06:04.480Z,8.38
2023-03-10T01:07:03.506Z,8.38
2023-03-10T01:08:03.531Z,8.44
2023-03-10T01:09:03.587Z,8.44
2023-03-10T01:10:03.839Z,8.44
2023-03-10T01:11:04.012Z,8.50
2023-03-10T01:12:03.916Z,8.50
2023-03-10T01:13:04.068Z,8.50
2023-03-10T01:14:04.158Z,8.50
2023-03-10T01:15:04.143Z,8.50
2023-03-10T01:16:04.266Z,8.50
2023-03-10T01:17:04.302Z,8.50
2023-03-10T01:18:04.258Z,8.50
2023-03-10T01:19:04.250Z,8.50
2023-03-10T01:20:04.399Z,8.50
2023-03-10T01:21:04.400Z,8.50
2023-03-10T01:22:04.395Z,8.50
2023-03-10T01:23:04.309Z,8.50
2023-03-10T01:24:03.518Z,8.50
2023-03-10T01:25:03.604Z,8.50
2023-03-10T01:26:03.681Z,8.50
2023-03-10T01:27:03.669Z,8.50
2023-03-10T01:28:03.748Z,8.50
2023-03-10T01:29:04.320Z,8.56
2023-03-10T01:30:04.474Z,8.50
2023-03-10T01:31:03.564Z,8.56
2023-03-10T01:32:03.606Z,8.56
2023-03-10T01:33:03.609Z,8.56
2023-03-10T01:34:03.528Z,8.56
2023-03-10T01:35:03.517Z,8.56
2023-03-10T01:36:03.696Z,8.56
2023-03-10T01:37:03.589Z,8.56
2023-03-10T01:38:03.607Z,8.56
2023-03-10T01:39:03.529Z,8.56
2023-03-10T01:40:03.603Z,8.56
2023-03-10T01:41:03.609Z,8.62
2023-03-10T01:42:03.589Z,8.62
2023-03-10T01:43:03.505Z,8.62
2023-03-10T01:44:03.606Z,8.62
2023-03-10T01:45:03.592Z,8.62
2023-03-10T01:46:03.697Z,8.62
2023-03-10T01:47:03.729Z,8.62
2023-03-10T01:48:03.587Z,8.62
2023-03-10T01:49:03.590Z,8.62
2023-03-10T01:50:03.768Z,8.62
2023-03-10T01:51:03.667Z,8.62
2023-03-10T01:52:03.605Z,8.62
2023-03-10T01:53:03.593Z,8.62
2023-03-10T01:54:03.580Z,8.62
2023-03-10T01:55:03.695Z,8.62
2023-03-10T01:56:03.755Z,8.62
2023-03-10T01:57:03.832Z,8.62
2023-03-10T01:58:03.828Z,8.62
2023-03-10T01:59:03.820Z,8.62
2023-03-10T02:00:03.831Z,8.62
2023-03-10T02:01:03.911Z,8.69
2023-03-10T02:02:03.878Z,8.69
2023-03-10T02:03:03.910Z,8.69
2023-03-10T02:04:03.995Z,8.69
2023-03-10T02:05:03.844Z,8.69
2023-03-10T02:06:03.831Z,8.69
2023-03-10T02:07:03.840Z,8.69
2023-03-10T02:08:03.917Z,8.69
2023-03-10T02:09:03.909Z,8.69
2023-03-10T02:10:03.848Z,8.69
2023-03-10T02:11:03.828Z,8.69
2023-03-10T02:12:03.832Z,8.69
2023-03-10T02:13:03.998Z,8.62
2023-03-10T02:14:03.996Z,8.69
2023-03-10T02:15:03.990Z,8.69
2023-03-10T02:16:04.193Z,8.62
2023-03-10T02:17:04.139Z,8.69
2023-03-10T02:18:04.310Z,8.69
2023-03-10T02:19:04.314Z,8.69
2023-03-10T02:20:04.402Z,8.69
2023-03-10T02:21:04.341Z,8.69
2023-03-10T02:22:04.392Z,8.69
2023-03-10T02:23:04.506Z,8.75
2023-03-10T02:24:04.407Z,8.75
2023-03-10T02:25:04.488Z,8.75
2023-03-10T02:26:04.400Z,8.75
2023-03-10T02:27:04.401Z,8.75
2023-03-10T02:28:03.755Z,8.69
2023-03-10T02:29:03.744Z,8.75
2023-03-10T02:30:03.669Z,8.75
2023-03-10T02:31:03.843Z,8.69
2023-03-10T02:32:03.961Z,8.69
2023-03-10T02:33:03.854Z,8.69
2023-03-10T02:34:03.752Z,8.69
2023-03-10T02:35:03.831Z,8.69
2023-03-10T02:36:03.887Z,8.69
2023-03-10T02:37:03.914Z,8.69
2023-03-10T02:38:03.909Z,8.69
2023-03-10T02:39:03.982Z,8.69
2023-03-10T02:40:04.392Z,8.69
2023-03-10T02:41:04.388Z,8.69
2023-03-10T02:42:04.400Z,8.69
2023-03-10T02:43:04.413Z,8.69
2023-03-10T02:44:04.387Z,8.69
2023-03-10T02:45:03.647Z,8.69
2023-03-10T02:46:03.552Z,8.69
2023-03-10T02:47:03.592Z,8.62
2023-03-10T02:48:03.584Z,8.62
2023-03-10T02:49:03.598Z,8.69
2023-03-10T02:50:03.593Z,8.69
2023-03-10T02:51:03.511Z,8.62
2023-03-10T02:52:03.597Z,8.69
2023-03-10T02:53:03.503Z,8.69
2023-03-10T02:54:03.677Z,8.69
2023-03-10T02:55:03.594Z,8.69
2023-03-10T02:56:03.591Z,8.69
2023-03-10T02:57:03.596Z,8.69
2023-03-10T02:58:03.591Z,8.69
2023-03-10T02:59:04.556Z,8.69
2023-03-10T03:00:03.520Z,8.69
2023-03-10T03:01:03.568Z,8.69
2023-03-10T03:02:04.473Z,8.69
2023-03-10T03:03:03.506Z,8.69
2023-03-10T03:04:03.631Z,8.69
2023-03-10T03:05:03.511Z,8.69
2023-03-10T03:06:03.669Z,8.69
2023-03-10T03:07:03.745Z,8.62
2023-03-10T03:08:03.772Z,8.69
2023-03-10T03:09:03.755Z,8.62
2023-03-10T03:10:03.769Z,8.62
2023-03-10T03:11:03.743Z,8.62
2023-03-10T03:12:03.751Z,8.69
2023-03-10T03:13:03.928Z,8.69
2023-03-10T03:14:03.995Z,8.62
2023-03-10T03:15:04.065Z,8.62
2023-03-10T03:16:04.063Z,8.62
2023-03-10T03:17:04.327Z,8.69
2023-03-10T03:18:04.319Z,8.75
2023-03-10T03:19:04.218Z,8.75
2023-03-10T03:20:04.149Z,8.75
2023-03-10T03:21:04.233Z,8.75
2023-03-10T03:22:04.139Z,8.75
2023-03-10T03:23:04.234Z,8.75
2023-03-10T03:24:04.148Z,8.81
2023-03-10T03:25:04.228Z,8.75
2023-03-10T03:26:04.315Z,8.81
2023-03-10T03:27:04.230Z,8.81
2023-03-10T03:28:04.308Z,8.81
2023-03-10T03:29:04.384Z,8.81
2023-03-10T03:30:04.299Z,8.81
2023-03-10T03:31:04.390Z,8.88
2023-03-10T03:32:04.464Z,8.88
2023-03-10T03:33:03.524Z,8.88
2023-03-10T03:34:03.515Z,8.88
2023-03-10T03:35:04.404Z,8.88
2023-03-10T03:36:04.430Z,8.88
2023-03-10T03:37:03.521Z,8.94
2023-03-10T03:38:03.691Z,8.94
2023-03-10T03:39:03.690Z,8.94
2023-03-10T03:40:03.597Z,8.94
2023-03-10T03:41:03.670Z,8.94
2023-03-10T03:42:03.677Z,8.94
2023-03-10T03:43:03.754Z,8.94
2023-03-10T03:44:03.908Z,8.94
2023-03-10T03:45:03.927Z,9.00
2023-03-10T03:46:03.938Z,9.00
2023-03-10T03:47:03.917Z,9.00
2023-03-10T03:48:03.981Z,9.00
2023-03-10T03:49:03.979Z,9.00
2023-03-10T03:50:03.909Z,9.00
2023-03-10T03:51:03.896Z,9.00
2023-03-10T03:52:03.900Z,9.00
2023-03-10T03:53:04.069Z,8.94
2023-03-10T03:54:03.983Z,9.00
2023-03-10T03:55:03.995Z,9.00
2023-03-10T03:56:04.066Z,9.00
2023-03-10T03:57:04.067Z,9.00
2023-03-10T03:58:04.069Z,9.00
2023-03-10T03:59:04.148Z,9.00
2023-03-10T04:00:04.067Z,9.00
2023-03-10T04:01:04.158Z,9.00
2023-03-10T04:02:04.199Z,9.06
2023-03-10T04:03:04.178Z,9.06
2023-03-10T04:04:04.069Z,9.06
2023-03-10T04:05:03.982Z,9.06
2023-03-10T04:06:04.157Z,9.06
2023-03-10T04:07:04.154Z,9.12
2023-03-10T04:08:04.141Z,9.12
2023-03-10T04:09:04.251Z,9.12
2023-03-10T04:10:04.317Z,9.12
2023-03-10T04:11:04.223Z,9.06
2023-03-10T04:12:04.314Z,9.06
2023-03-10T04:13:04.480Z,9.06
2023-03-10T04:14:03.503Z,9.12
2023-03-10T04:15:03.587Z,9.12
2023-03-10T04:16:03.639Z,9.12
2023-03-10T04:17:03.755Z,9.12
2023-03-10T04:18:03.674Z,9.12
2023-03-10T04:19:03.659Z,9.12
2023-03-10T04:20:07.249Z,9.12
2023-03-10T04:21:03.760Z,9.12
2023-03-10T04:22:03.766Z,9.19
2023-03-10T04:23:03.658Z,9.12
2023-03-10T04:24:03.665Z,9.19
2023-03-10T04:25:03.747Z,9.19
2023-03-10T04:26:03.755Z,9.19
2023-03-10T04:27:03.752Z,9.19
2023-03-10T04:28:04.167Z,9.19
2023-03-10T04:29:04.240Z,9.25
2023-03-10T04:30:04.232Z,9.19
2023-03-10T04:31:04.367Z,9.25
2023-03-10T04:32:05.446Z,9.25
2023-03-10T04:33:04.310Z,9.25
2023-03-10T04:34:04.390Z,9.25
2023-03-10T04:35:03.675Z,9.25
2023-03-10T04:36:03.736Z,9.25
2023-03-10T04:37:03.695Z,9.19
2023-03-10T04:38:03.673Z,9.25
2023-03-10T04:39:03.675Z,9.19
2023-03-10T04:40:03.751Z,9.19
2023-03-10T04:41:03.678Z,9.19
2023-03-10T04:42:03.752Z,9.19
2023-03-10T04:43:03.665Z,9.19
2023-03-10T04:44:03.751Z,9.19
2023-03-10T04:45:03.766Z,9.25
2023-03-10T04:46:03.802Z,9.25
2023-03-10T04:47:03.752Z,9.25
2023-03-10T04:48:04.313Z,9.25
2023-03-10T04:49:04.317Z,9.25
2023-03-10T04:50:04.239Z,9.25
2023-03-10T04:51:04.309Z,9.25
2023-03-10T04:52:04.313Z,9.25
2023-03-10T04:53:04.299Z,9.25
2023-03-10T04:54:04.320Z,9.25
2023-03-10T04:55:04.385Z,9.25
2023-03-10T04:56:04.310Z,9.25
2023-03-10T04:57:04.312Z,9.31
2023-03-10T04:58:04.346Z,9.31
2023-03-10T04:59:04.384Z,9.31
2023-03-10T05:00:04.271Z,9.31
2023-03-10T05:01:04.336Z,9.31
2023-03-10T05:02:04.289Z,9.31
2023-03-10T05:03:04.146Z,9.25
2023-03-10T05:04:04.479Z,9.25
2023-03-10T05:05:04.391Z,9.25
2023-03-10T05:06:04.384Z,9.31
2023-03-10T05:07:04.384Z,9.31
2023-03-10T05:08:04.477Z,9.31
2023-03-10T05:09:04.468Z,9.25
2023-03-10T05:10:04.474Z,9.25
2023-03-10T05:11:04.395Z,9.25
2023-03-10T05:12:03.437Z,9.25
2023-03-10T05:13:03.582Z,9.25
2023-03-10T05:14:03.586Z,9.25
2023-03-10T05:15:03.666Z,9.31
2023-03-10T05:16:03.807Z,9.31
2023-03-10T05:17:03.773Z,9.31
2023-03-10T05:18:03.825Z,9.31
2023-03-10T05:19:03.841Z,9.31
2023-03-10T05:20:03.864Z,9.31
2023-03-10T05:21:03.830Z,9.31
2023-03-10T05:22:03.912Z,9.31
2023-03-10T05:23:03.923Z,9.31
2023-03-10T05:24:03.982Z,9.25
2023-03-10T05:25:04.261Z,9.31
2023-03-10T05:26:04.321Z,9.31
2023-03-10T05:27:04.383Z,9.31
2023-03-10T05:28:04.402Z,9.25
2023-03-10T05:29:04.387Z,9.31
2023-03-10T05:30:04.481Z,9.25
2023-03-10T05:31:04.598Z,9.31
2023-03-10T05:32:03.597Z,9.31
2023-03-10T05:33:03.501Z,9.31
2023-03-10T05:34:03.506Z,9.31
2023-03-10T05:35:03.604Z,9.31
2023-03-10T05:36:03.562Z,9.31
2023-03-10T05:37:03.520Z,9.31
2023-03-10T05:38:03.522Z,9.31
2023-03-10T05:39:04.393Z,9.31
2023-03-10T05:40:04.473Z,9.31
2023-03-10T05:41:04.383Z,9.31
2023-03-10T05:42:04.406Z,9.31
2023-03-10T05:43:08.661Z,9.31
2023-03-10T05:44:04.383Z,9.31
2023-03-10T05:45:03.510Z,9.31
2023-03-10T05:46:03.518Z,9.31
2023-03-10T05:47:03.711Z,9.31
2023-03-10T05:48:03.592Z,9.25
2023-03-10T05:49:03.531Z,9.25
2023-03-10T05:50:03.591Z,9.31
2023-03-10T05:51:03.599Z,9.31
2023-03-10T05:52:03.505Z,9.31
2023-03-10T05:53:03.509Z,9.31
2023-03-10T05:54:03.586Z,9.31
2023-03-10T05:55:03.609Z,9.31
2023-03-10T05:56:03.677Z,9.31
2023-03-10T05:57:03.676Z,9.31
2023-03-10T05:58:04.389Z,9.38
2023-03-10T05:59:03.690Z,9.31
2023-03-10T06:00:03.590Z,9.31
2023-03-10T06:01:03.587Z,9.38
2023-03-10T06:02:03.754Z,9.44
2023-03-10T06:03:03.695Z,9.62
2023-03-10T06:04:04.044Z,10.00
2023-03-10T06:05:03.981Z,10.06
2023-03-10T06:06:03.904Z,10.19
2023-03-10T06:07:03.995Z,10.19
2023-03-10T06:08:04.063Z,10.12
2023-03-10T06:09:03.987Z,10.06
2023-03-10T06:10:04.155Z,10.00
2023-03-10T06:11:04.142Z,10.12
2023-03-10T06:12:04.157Z,10.06
2023-03-10T06:13:04.142Z,10.00
2023-03-10T06:14:04.229Z,9.94
2023-03-10T06:15:04.313Z,10.12
2023-03-10T06:16:04.384Z,10.12
2023-03-10T06:17:04.238Z,10.12
2023-03-10T06:18:04.306Z,10.06
2023-03-10T06:19:04.384Z,10.00
2023-03-10T06:20:04.392Z,10.06
2023-03-10T06:21:04.391Z,10.12
2023-03-10T06:22:03.591Z,10.25
2023-03-10T06:23:03.587Z,10.25
2023-03-10T06:24:03.603Z,10.50
2023-03-10T06:25:04.479Z,10.88
2023-03-10T06:26:03.586Z,10.75
2023-03-10T06:27:03.747Z,10.75
2023-03-10T06:28:03.664Z,11.12
2023-03-10T06:29:03.662Z,11.06
2023-03-10T06:30:03.759Z,10.94
2023-03-10T06:31:03.744Z,10.75
2023-03-10T06:32:03.856Z,10.75
2023-03-10T06:33:03.833Z,10.88
2023-03-10T06:34:04.584Z,10.81
2023-03-10T06:35:03.930Z,10.81
2023-03-10T06:36:04.034Z,10.81
2023-03-10T06:37:04.085Z,10.75
2023-03-10T06:38:03.988Z,10.69
2023-03-10T06:39:04.073Z,10.69
2023-03-10T06:40:04.077Z,10.69
2023-03-10T06:41:04.096Z,10.62
2023-03-10T06:42:04.157Z,10.75
2023-03-10T06:43:04.157Z,10.69
2023-03-10T06:44:04.153Z,10.56
2023-03-10T06:45:04.177Z,10.50
2023-03-10T06:46:04.177Z,10.44
2023-03-10T06:47:04.248Z,10.38
2023-03-10T06:48:04.389Z,10.38
2023-03-10T06:49:04.239Z,10.38
2023-03-10T06:50:04.225Z,10.38
2023-03-10T06:51:04.167Z,10.38
2023-03-10T06:52:04.227Z,10.31
2023-03-10T06:53:04.245Z,10.31
2023-03-10T06:54:04.394Z,10.44
2023-03-10T06:55:04.418Z,10.44
2023-03-10T06:56:04.415Z,10.38
2023-03-10T06:57:04.415Z,10.44
2023-03-10T06:58:03.511Z,10.50
2023-03-10T06:59:03.688Z,10.62
2023-03-10T07:00:03.810Z,10.69
2023-03-10T07:01:03.755Z,10.69
2023-03-10T07:02:03.753Z,10.75
2023-03-10T07:03:03.999Z,10.81
2023-03-10T07:04:03.997Z,10.88
2023-03-10T07:05:04.147Z,11.06
2023-03-10T07:06:04.240Z,11.06
2023-03-10T07:07:04.240Z,11.12
2023-03-10T07:08:04.311Z,11.25
2023-03-10T07:09:04.324Z,11.31
2023-03-10T07:10:06.339Z,11.38
2023-03-10T07:11:04.391Z,11.38
2023-03-10T07:12:04.347Z,11.44
2023-03-10T07:13:04.496Z,11.50
2023-03-10T07:14:04.431Z,11.62
2023-03-10T07:15:04.406Z,11.75
2023-03-10T07:16:04.482Z,11.75
2023-03-10T07:17:04.489Z,11.75
2023-03-10T07:18:03.523Z,11.75
2023-03-10T07:19:03.667Z,11.69
2023-03-10T07:20:03.686Z,11.75
2023-03-10T07:21:03.841Z,11.88
2023-03-10T07:22:03.753Z,11.94
2023-03-10T07:23:03.921Z,12.00
2023-03-10T07:24:03.935Z,12.12
2023-03-10T07:25:03.917Z,12.31
2023-03-10T07:26:04.001Z,12.44
2023-03-10T07:27:03.918Z,12.56
2023-03-10T07:28:03.993Z,12.62
2023-03-10T07:29:04.161Z,12.75
2023-03-10T07:30:04.068Z,12.81
2023-03-10T07:31:04.150Z,12.81
2023-03-10T07:32:04.232Z,12.88
2023-03-10T07:33:04.231Z,12.94
2023-03-10T07:34:04.236Z,13.00
2023-03-10T07:35:04.313Z,13.06
2023-03-10T07:36:04.480Z,13.31
2023-03-10T07:37:04.320Z,13.38
2023-03-10T07:38:04.227Z,13.56
2023-03-10T07:39:04.227Z,13.75
2023-03-10T07:40:04.502Z,13.81
2023-03-10T07:41:04.390Z,13.94
2023-03-10T07:42:04.399Z,14.06
2023-03-10T07:43:04.310Z,14.12
2023-03-10T07:44:04.316Z,14.19
2023-03-10T07:45:04.223Z,14.25
2023-03-10T07:46:04.353Z,14.31
2023-03-10T07:47:04.219Z,14.38
2023-03-10T07:48:04.231Z,14.44
2023-03-10T07:49:04.283Z,14.50
2023-03-10T07:50:04.318Z,14.50
2023-03-10T07:51:04.484Z,14.56
2023-03-10T07:52:04.399Z,14.75
2023-03-10T07:53:03.598Z,15.00
2023-03-10T07:54:03.670Z,15.06
2023-03-10T07:55:03.674Z,15.06
2023-03-10T07:56:03.785Z,15.06
2023-03-10T07:57:03.952Z,15.12
2023-03-10T07:58:03.841Z,15.19
2023-03-10T07:59:03.990Z,15.25
2023-03-10T08:00:04.148Z,15.25
2023-03-10T08:01:04.108Z,15.38
2023-03-10T08:02:03.996Z,15.44
2023-03-10T08:03:04.091Z,15.62
2023-03-10T08:04:04.316Z,15.81
2023-03-10T08:05:04.174Z,15.81
2023-03-10T08:06:04.320Z,15.81
2023-03-10T08:07:04.351Z,15.94
2023-03-10T08:08:04.080Z,16.00
2023-03-10T08:09:04.244Z,16.06
2023-03-10T08:10:04.232Z,16.19
2023-03-10T08:11:04.168Z,16.19
2023-03-10T08:12:04.355Z,16.19
2023-03-10T08:13:04.394Z,16.25
2023-03-10T08:14:04.379Z,16.25
2023-03-10T08:15:04.438Z,16.25
2023-03-10T08:16:04.449Z,16.25
2023-03-10T08:17:04.465Z,16.31
2023-03-10T08:18:04.397Z,16.31
2023-03-10T08:19:04.413Z,16.31
2023-03-10T08:20:04.397Z,16.38
2023-03-10T08:21:04.550Z,16.44
2023-03-10T08:22:03.510Z,16.44
2023-03-10T08:23:03.587Z,16.44
2023-03-10T08:24:03.591Z,16.50
2023-03-10T08:25:03.503Z,16.50
2023-03-10T08:26:03.518Z,16.50
2023-03-10T08:27:03.587Z,16.56
2023-03-10T08:28:03.680Z,16.75
2023-03-10T08:29:03.600Z,16.88
2023-03-10T08:30:03.678Z,16.88
2023-03-10T08:31:05.461Z,16.75
2023-03-10T08:32:04.003Z,16.69
2023-03-10T08:33:03.957Z,16.69
2023-03-10T08:34:03.910Z,16.62
2023-03-10T08:35:03.916Z,16.62
2023-03-10T08:36:03.973Z,16.56
2023-03-10T08:37:03.829Z,16.50
2023-03-10T08:38:03.999Z,16.50
2023-03-10T08:39:03.990Z,16.44
2023-03-10T08:40:03.996Z,16.38
2023-03-10T08:41:04.162Z,16.31
2023-03-10T08:42:04.159Z,16.31
2023-03-10T08:43:04.107Z,16.31
2023-03-10T08:44:04.177Z,16.31
2023-03-10T08:45:04.795Z,16.31
2023-03-10T08:46:05.301Z,16.25
2023-03-10T08:47:04.442Z,16.25
2023-03-10T08:48:04.265Z,16.25
2023-03-10T08:49:04.318Z,16.19
2023-03-10T08:50:04.314Z,16.19
2023-03-10T08:51:04.413Z,16.19
2023-03-10T08:52:04.324Z,16.12
2023-03-10T08:53:04.394Z,16.06
2023-03-10T08:54:04.488Z,16.06
2023-03-10T08:55:04.422Z,16.06
2023-03-10T08:56:03.513Z,16.06
2023-03-10T08:57:03.509Z,16.00
2023-03-10T08:58:03.514Z,16.06
2023-03-10T08:59:04.475Z,16.06
2023-03-10T09:00:03.598Z,16.00
2023-03-10T09:01:03.665Z,16.00
2023-03-10T09:02:03.668Z,15.88
2023-03-10T09:03:03.538Z,15.81
2023-03-10T09:04:03.516Z,15.75
2023-03-10T09:05:03.585Z,15.75
2023-03-10T09:06:03.684Z,15.69
2023-03-10T09:07:03.601Z,15.69
2023-03-10T09:08:03.675Z,15.69
2023-03-10T09:09:04.077Z,15.69
2023-03-10T09:10:04.159Z,15.62
2023-03-10T09:11:04.156Z,15.56
2023-03-10T09:12:04.148Z,15.56
2023-03-10T09:13:13.187Z,15.56
2023-03-10T09:14:04.384Z,15.56
2023-03-10T09:15:04.245Z,15.50
2023-03-10T09:16:04.258Z,15.44
2023-03-10T09:17:04.333Z,15.44
2023-03-10T09:18:04.366Z,15.44
2023-03-10T09:19:04.406Z,15.44
2023-03-10T09:20:04.411Z,15.44
2023-03-10T09:21:04.400Z,15.31
2023-03-10T09:22:03.601Z,15.25
2023-03-10T09:23:03.603Z,15.25
2023-03-10T09:24:03.621Z,15.25
2023-03-10T09:25:03.598Z,15.25
2023-03-10T09:26:03.684Z,15.19
2023-03-10T09:27:03.598Z,15.19
2023-03-10T09:28:03.604Z,15.12
2023-03-10T09:29:03.592Z,15.06
2023-03-10T09:30:04.568Z,15.00
2023-03-10T09:31:03.749Z,14.94
2023-03-10T09:32:03.685Z,14.88
2023-03-10T09:33:03.816Z,14.81
2023-03-10T09:34:03.766Z,14.75
2023-03-10T09:35:03.917Z,14.75
2023-03-10T09:36:06.697Z,14.69
2023-03-10T09:37:03.999Z,14.69
2023-03-10T09:38:03.933Z,14.69
2023-03-10T09:39:04.095Z,14.62
2023-03-10T09:40:06.227Z,14.69
2023-03-10T09:41:04.068Z,14.62
2023-03-10T09:42:04.017Z,14.62
2023-03-10T09:43:03.986Z,14.62
2023-03-10T09:44:04.019Z,14.62
2023-03-10T09:45:04.080Z,14.62
2023-03-10T09:46:04.041Z,14.56
2023-03-10T09:47:03.987Z,14.56
2023-03-10T09:48:04.959Z,14.56
2023-03-10T09:49:04.000Z,14.56
2023-03-10T09:50:04.081Z,14.56
2023-03-10T09:51:04.072Z,14.56
2023-03-10T09:52:04.104Z,14.56
2023-03-10T09:53:04.167Z,14.50
2023-03-10T09:54:04.160Z,14.50
2023-03-10T09:55:04.239Z,14.44
2023-03-10T09:56:04.245Z,14.44
2023-03-10T09:57:04.235Z,14.38
2023-03-10T09:58:04.238Z,14.31
2023-03-10T09:59:04.317Z,14.31
2023-03-10T10:00:04.336Z,14.31
2023-03-10T10:01:04.316Z,14.31
2023-03-10T10:02:04.523Z,14.25
2023-03-10T10:03:04.480Z,14.25
2023-03-10T10:04:04.425Z,14.25
2023-03-10T10:05:04.383Z,14.19
2023-03-10T10:06:04.312Z,14.19
2023-03-10T10:07:04.385Z,14.19
2023-03-10T10:08:04.394Z,14.19
2023-03-10T10:09:05.637Z,14.19
2023-03-10T10:10:05.404Z,14.25
2023-03-10T10:11:04.481Z,14.19
2023-03-10T10:12:04.457Z,14.19
2023-03-10T10:13:04.404Z,14.19
2023-03-10T10:14:04.419Z,14.25
2023-03-10T10:15:04.324Z,14.25
2023-03-10T10:16:18.641Z,14.25
2023-03-10T10:17:04.512Z,14.25
2023-03-10T10:18:16.058Z,14.25
2023-03-10T10:19:03.633Z,14.25
2023-03-10T10:20:03.606Z,14.25
2023-03-10T10:21:03.601Z,14.25
2023-03-10T10:22:03.431Z,14.25
2023-03-10T10:23:04.471Z,14.25
2023-03-10T10:24:03.514Z,14.25
2023-03-10T10:25:03.521Z,14.25
2023-03-10T10:26:03.604Z,14.25
2023-03-10T10:27:03.661Z,14.25
2023-03-10T10:28:03.678Z,14.25
2023-03-10T10:29:03.585Z,14.25
2023-03-10T10:30:03.515Z,14.19
2023-03-10T10:31:03.726Z,14.19
2023-03-10T10:32:03.689Z,14.19
2023-03-10T10:33:03.528Z,14.19
2023-03-10T10:34:03.585Z,14.12
2023-03-10T10:35:03.601Z,14.06
2023-03-10T10:36:03.723Z,14.06
2023-03-10T10:37:03.678Z,14.06
2023-03-10T10:38:03.595Z,14.06
2023-03-10T10:39:03.673Z,14.00
2023-03-10T10:40:03.702Z,14.00
2023-03-10T10:41:06.676Z,13.94
2023-03-10T10:42:03.730Z,13.94
2023-03-10T10:43:03.593Z,13.88
2023-03-10T10:44:03.835Z,13.88
2023-03-10T10:45:03.674Z,13.88
2023-03-10T10:46:03.845Z,13.81
2023-03-10T10:47:03.908Z,13.81
2023-03-10T10:48:03.838Z,13.81
2023-03-10T10:49:03.819Z,13.75
2023-03-10T10:50:03.964Z,13.75
2023-03-10T10:51:03.909Z,13.81
2023-03-10T10:52:03.912Z,13.75
2023-03-10T10:53:04.068Z,13.75
2023-03-10T10:54:04.065Z,13.75
2023-03-10T10:55:04.166Z,13.75
2023-03-10T10:56:04.231Z,13.69
2023-03-10T10:57:04.237Z,13.69
2023-03-10T10:58:04.160Z,13.69
2023-03-10T10:59:04.239Z,13.69
2023-03-10T11:00:04.331Z,13.69
2023-03-10T11:01:04.362Z,13.69
2023-03-10T11:02:04.281Z,13.69
2023-03-10T11:03:04.304Z,13.69
2023-03-10T11:04:05.587Z,13.69
2023-03-10T11:05:04.154Z,13.75
2023-03-10T11:06:04.150Z,13.75
2023-03-10T11:07:04.321Z,13.75
2023-03-10T11:08:04.413Z,13.69
2023-03-10T11:09:04.405Z,13.69
2023-03-10T11:10:04.566Z,13.62
2023-03-10T11:11:04.470Z,13.62
2023-03-10T11:12:03.598Z,13.56
2023-03-10T11:13:03.504Z,13.56
2023-03-10T11:14:04.401Z,13.56
2023-03-10T11:15:04.326Z,13.50
2023-03-10T11:16:04.404Z,13.50
2023-03-10T11:17:04.333Z,13.44
2023-03-10T11:18:04.482Z,13.38
2023-03-10T11:19:04.328Z,13.38
2023-03-10T11:20:04.410Z,13.31
2023-03-10T11:21:05.188Z,13.31
2023-03-10T11:22:04.402Z,13.31
2023-03-10T11:23:04.313Z,13.25
2023-03-10T11:24:04.309Z,13.25
2023-03-10T11:25:04.246Z,13.25
2023-03-10T11:26:04.240Z,13.19
2023-03-10T11:27:04.316Z,13.19
2023-03-10T11:28:04.435Z,13.19
2023-03-10T11:29:04.536Z,13.19
2023-03-10T11:30:04.339Z,13.19
2023-03-10T11:31:04.374Z,13.19
2023-03-10T11:32:04.418Z,13.19
2023-03-10T11:33:04.435Z,13.19
2023-03-10T11:34:03.430Z,13.19
2023-03-10T11:35:03.605Z,13.25
2023-03-10T11:36:04.566Z,13.25
2023-03-10T11:37:03.594Z,13.25
2023-03-10T11:38:03.744Z,13.31
2023-03-10T11:39:03.829Z,13.31
2023-03-10T11:40:03.832Z,13.38
2023-03-10T11:41:03.822Z,13.38
2023-03-10T11:42:03.755Z,13.38
2023-03-10T11:43:03.842Z,13.44
2023-03-10T11:44:03.834Z,13.44
2023-03-10T11:45:03.912Z,13.44
2023-03-10T11:46:03.965Z,13.44
2023-03-10T11:47:04.006Z,13.44
2023-03-10T11:48:03.831Z,13.44
2023-03-10T11:49:03.989Z,13.44
2023-03-10T11:50:04.006Z,13.38
2023-03-10T11:51:03.915Z,13.38
2023-03-10T11:52:04.090Z,13.38
2023-03-10T11:53:04.076Z,13.38
2023-03-10T11:54:03.998Z,13.38
2023-03-10T11:55:03.989Z,13.38
2023-03-10T11:56:04.093Z,13.38
2023-03-10T11:57:03.992Z,13.38
2023-03-10T11:58:03.992Z,13.31
2023-03-10T11:59:03.923Z,13.31
2023-03-10T12:00:04.083Z,13.38
2023-03-10T12:01:04.158Z,13.31
2023-03-10T12:02:04.243Z,13.38
2023-03-10T12:03:04.429Z,13.38
2023-03-10T12:04:04.320Z,13.38
2023-03-10T12:05:04.519Z,13.44
2023-03-10T12:06:03.609Z,13.44
2023-03-10T12:07:03.510Z,13.44
2023-03-10T12:08:04.478Z,13.44
2023-03-10T12:09:04.473Z,13.44
2023-03-10T12:10:03.595Z,13.44
2023-03-10T12:11:03.510Z,13.44
2023-03-10T12:12:03.506Z,13.38
2023-03-10T12:13:03.598Z,13.38
2023-03-10T12:14:03.595Z,13.38
2023-03-10T12:15:03.582Z,13.38
2023-03-10T12:16:04.599Z,13.31
2023-03-10T12:17:04.395Z,13.31
2023-03-10T12:18:03.590Z,13.25
2023-03-10T12:19:04.488Z,13.25
2023-03-10T12:20:04.392Z,13.25
2023-03-10T12:21:03.513Z,13.19
2023-03-10T12:22:03.586Z,13.19
2023-03-10T12:23:03.590Z,13.12
2023-03-10T12:24:03.584Z,13.12
2023-03-10T12:25:03.586Z,13.00
2023-03-10T12:26:03.686Z,12.94
2023-03-10T12:27:03.704Z,12.88
2023-03-10T12:28:03.674Z,12.81
2023-03-10T12:29:03.750Z,12.75
2023-03-10T12:30:03.735Z,12.75
2023-03-10T12:31:03.842Z,12.69
2023-03-10T12:32:03.842Z,12.62
2023-03-10T12:33:03.770Z,12.56
2023-03-10T12:34:03.763Z,12.56
2023-03-10T12:35:03.668Z,12.50
2023-03-10T12:36:03.807Z,12.44
2023-03-10T12:37:03.756Z,12.38
2023-03-10T12:38:03.742Z,12.38
2023-03-10T12:39:03.587Z,12.31
2023-03-10T12:40:03.665Z,12.25
2023-03-10T12:41:03.749Z,12.25
2023-03-10T12:42:03.775Z,12.19
2023-03-10T12:43:03.756Z,12.19
2023-03-10T12:44:03.829Z,12.12
2023-03-10T12:45:03.915Z,12.12
2023-03-10T12:46:03.997Z,12.12
2023-03-10T12:47:04.088Z,12.19
2023-03-10T12:48:03.835Z,12.19
2023-03-10T12:49:03.903Z,12.19
2023-03-10T12:50:03.993Z,12.19
2023-03-10T12:51:04.010Z,12.19
2023-03-10T12:52:03.897Z,12.19
2023-03-10T12:53:03.911Z,12.19
2023-03-10T12:54:03.824Z,12.25
2023-03-10T12:55:03.856Z,12.25
2023-03-10T12:56:03.824Z,12.25
2023-03-10T12:57:03.913Z,12.25
2023-03-10T12:58:04.007Z,12.31
2023-03-10T12:59:03.823Z,12.31
2023-03-10T13:00:03.995Z,12.31
2023-03-10T13:01:03.978Z,12.31
2023-03-10T13:02:03.984Z,12.38
2023-03-10T13:03:04.071Z,12.38
2023-03-10T13:04:04.084Z,12.38